Airfield :
LOGIN :

Register | Disclaimer

   EN    FR    IT 

 










Legend :    VFR   Marginal VFR   IFR   Intensive IFR   Very Intensive IFR
Visi :
Ceiling :
>= 8 km
>= 3000ft
5 to 8 km
1000 to 3000 ft
1500m to 5 km
500 to 1000 ft
800 to 1500m
200 to 500 ft
< 800m
< 200 ft
Symbols :   Thunderstorms  Fog  Heavy snow  Heavy precipitations  Wind > 20 kt
SIGMETs :     Misc.  Thunderstorms  Icing  Turbulence  Mountain Waves  Volcanic Ashes







- Airport Elevation : 3360 ft
- IATA code : QSF


DAAS - 8 Mai 45

CURRENT METAR :
  • 151900Z 14003KT 9999 FEW030 23/14 Q1025

EXPIRED METARs :
  • 151800Z 20004KT 9999 FEW030 24/15 Q1024
  • 151700Z 20005KT 9999 FEW030 26/15 Q1024

TAF TAF DAAS
Valid from the 15 at 18:00 until the 16 at 18:00 UTC


151700Z 1518/1618 21011KT 9999 FEW030 SCT200
PROB40
TEMPO 1518/1524 5000 -TSRA FEW026CB BKN030
BECMG 1520/1522 27008KT
PROB40
TEMPO 1603/1612 FEW026TCU
PROB40
TEMPO 1606/1618 FEW026TCU
BECMG 1609/1611 34011KT
PROB40
TEMPO 1612/1618 5000 -TSRA FEW023CB
No reported NOTAMs for that airfield.



MET'MAP, your aeronautical weather chart ! - Copyright ORBIFLY December 2007 - Disclaimer

ORBIFLY MET'MAP TEAM :

Programming & Development : Alexandra Zaïnal
Concept & Development : Baudouin d'Aumeries
Co-Development & Prog : Marc-Olivier Méhu
Technical & hardware support : Manuel Goepfert

Contact : metmap@orbifly.com




SOURCES & CREDITS :

   NOAA